createdAt,value
2017-09-23T00:00:38.611Z,14.64
2017-09-23T00:03:06.067Z,14.76
2017-09-23T00:05:33.471Z,14.65
2017-09-23T00:08:00.863Z,14.69
2017-09-23T00:10:28.288Z,14.65
2017-09-23T00:12:55.686Z,14.66
2017-09-23T00:15:23.075Z,14.66
2017-09-23T00:17:50.471Z,14.59
2017-09-23T00:20:17.864Z,14.59
2017-09-23T00:22:45.257Z,14.57
2017-09-23T00:25:12.663Z,14.57
2017-09-23T00:27:40.054Z,14.52
2017-09-23T00:30:07.446Z,14.49
2017-09-23T00:32:34.927Z,14.49
2017-09-23T00:35:02.324Z,14.47
2017-09-23T00:37:29.706Z,14.45
2017-09-23T00:39:57.116Z,14.39
2017-09-23T00:42:24.494Z,14.38
2017-09-23T00:44:51.910Z,14.39
2017-09-23T00:47:19.293Z,14.21
2017-09-23T00:49:46.690Z,14.05
2017-09-23T00:52:14.087Z,14.11
2017-09-23T00:54:41.471Z,14.10
2017-09-23T00:57:08.874Z,14.08
2017-09-23T00:59:36.262Z,14.06
2017-09-23T01:02:03.667Z,14.03
2017-09-23T01:04:31.153Z,13.99
2017-09-23T01:06:58.551Z,13.93
2017-09-23T01:09:25.951Z,13.94
2017-09-23T01:11:53.354Z,13.95
2017-09-23T01:14:20.763Z,13.94
2017-09-23T01:16:48.159Z,13.90
2017-09-23T01:19:15.551Z,13.93
2017-09-23T01:21:42.954Z,13.90
2017-09-23T01:24:10.351Z,13.88
2017-09-23T01:26:37.851Z,13.94
2017-09-23T01:29:05.255Z,13.96
2017-09-23T01:31:32.672Z,13.80
2017-09-23T01:34:00.060Z,13.35
2017-09-23T01:36:27.575Z,13.43
2017-09-23T01:38:54.975Z,13.61
2017-09-23T01:41:22.379Z,13.67
2017-09-23T01:43:49.771Z,13.58
2017-09-23T01:46:17.193Z,13.31
2017-09-23T01:48:44.586Z,13.16
2017-09-23T01:51:12.006Z,13.35
2017-09-23T01:53:39.402Z,13.46
2017-09-23T01:56:06.809Z,13.47
2017-09-23T01:58:34.211Z,13.54
2017-09-23T02:01:01.614Z,13.54
2017-09-23T02:03:29.011Z,13.37
2017-09-23T02:05:56.406Z,12.92
2017-09-23T02:08:23.807Z,12.78
2017-09-23T02:10:51.193Z,12.69
2017-09-23T02:13:18.598Z,12.90
2017-09-23T02:15:45.995Z,13.10
2017-09-23T02:18:13.416Z,13.32
2017-09-23T02:20:40.812Z,13.20
2017-09-23T02:23:08.223Z,13.13
2017-09-23T02:25:35.616Z,13.36
2017-09-23T02:28:03.018Z,13.38
2017-09-23T02:30:30.403Z,13.45
2017-09-23T02:32:57.804Z,13.50
2017-09-23T02:35:25.194Z,13.40
2017-09-23T02:37:52.594Z,13.37
2017-09-23T02:40:19.982Z,13.46
2017-09-23T02:42:47.383Z,13.46
2017-09-23T02:45:14.777Z,13.47
2017-09-23T02:47:42.175Z,13.26
2017-09-23T02:50:09.575Z,13.16
2017-09-23T02:52:36.966Z,12.95
2017-09-23T02:55:04.362Z,12.94
2017-09-23T02:57:31.756Z,13.13
2017-09-23T02:59:59.250Z,13.16
2017-09-23T03:02:26.643Z,13.25
2017-09-23T03:04:54.032Z,13.27
2017-09-23T03:07:21.424Z,13.29
2017-09-23T03:09:48.822Z,13.26
2017-09-23T03:12:16.231Z,13.14
2017-09-23T03:14:43.635Z,13.17
2017-09-23T03:17:11.046Z,13.21
2017-09-23T03:19:38.442Z,13.15
2017-09-23T03:22:05.838Z,13.12
2017-09-23T03:24:33.237Z,13.06
2017-09-23T03:27:00.639Z,13.00
2017-09-23T03:29:28.043Z,13.08
2017-09-23T03:31:55.441Z,12.79
2017-09-23T03:34:22.836Z,12.32
2017-09-23T03:36:50.226Z,12.10
2017-09-23T03:39:17.627Z,12.17
2017-09-23T03:41:45.088Z,12.37
2017-09-23T03:44:12.498Z,12.43
2017-09-23T03:46:39.886Z,12.61
2017-09-23T03:49:07.277Z,12.50
2017-09-23T03:51:34.679Z,12.55
2017-09-23T03:54:02.074Z,12.50
2017-09-23T03:56:29.474Z,12.19
2017-09-23T03:58:56.866Z,11.94
2017-09-23T04:01:24.266Z,11.98
2017-09-23T04:03:51.656Z,12.28
2017-09-23T04:06:19.064Z,12.31
2017-09-23T04:08:46.494Z,12.24
2017-09-23T04:11:13.902Z,12.29
2017-09-23T04:13:41.292Z,12.40
2017-09-23T04:16:08.685Z,12.50
2017-09-23T04:18:36.082Z,12.51
2017-09-23T04:21:03.487Z,12.43
2017-09-23T04:23:30.871Z,12.48
2017-09-23T04:25:58.266Z,12.33
2017-09-23T04:28:25.662Z,12.22
2017-09-23T04:30:53.068Z,12.34
2017-09-23T04:33:20.461Z,12.43
2017-09-23T04:35:47.854Z,12.53
2017-09-23T04:38:15.252Z,12.53
2017-09-23T04:40:42.646Z,12.42
2017-09-23T04:43:10.042Z,12.12
2017-09-23T04:45:37.442Z,12.21
2017-09-23T04:48:04.834Z,11.80
2017-09-23T04:50:32.350Z,11.93
2017-09-23T04:52:59.750Z,12.02
2017-09-23T04:55:27.147Z,11.98
2017-09-23T04:57:54.541Z,11.94
2017-09-23T05:00:21.955Z,11.98
2017-09-23T05:02:49.346Z,12.15
2017-09-23T05:05:16.742Z,12.24
2017-09-23T05:07:44.145Z,12.32
2017-09-23T05:10:11.542Z,11.98
2017-09-23T05:12:38.943Z,12.08
2017-09-23T05:15:06.338Z,12.12
2017-09-23T05:17:33.843Z,12.13
2017-09-23T05:20:01.230Z,12.31
2017-09-23T05:22:28.641Z,12.39
2017-09-23T05:24:56.030Z,12.46
2017-09-23T05:27:23.435Z,12.32
2017-09-23T05:29:50.825Z,12.33
2017-09-23T05:32:18.223Z,12.29
2017-09-23T05:34:45.602Z,12.45
2017-09-23T05:37:13.006Z,12.51
2017-09-23T05:39:40.446Z,12.53
2017-09-23T05:42:07.834Z,12.52
2017-09-23T05:44:35.251Z,12.60
2017-09-23T05:47:02.713Z,12.48
2017-09-23T05:49:30.108Z,12.46
2017-09-23T05:51:57.504Z,12.49
2017-09-23T05:54:24.895Z,12.66
2017-09-23T05:56:52.291Z,12.75
2017-09-23T05:59:19.686Z,12.92
2017-09-23T06:01:47.098Z,13.06
2017-09-23T06:04:14.519Z,13.37
2017-09-23T06:06:41.926Z,13.60
2017-09-23T06:09:09.336Z,13.71
2017-09-23T06:11:36.726Z,13.88
2017-09-23T06:14:04.134Z,13.85
2017-09-23T06:16:31.530Z,14.17
2017-09-23T06:18:58.927Z,13.75
2017-09-23T06:21:26.326Z,13.82
2017-09-23T06:23:53.761Z,14.03
2017-09-23T06:26:21.155Z,14.52
2017-09-23T06:28:48.586Z,14.95
2017-09-23T06:31:16.019Z,15.50
2017-09-23T06:33:43.432Z,16.24
2017-09-23T06:36:10.831Z,17.17
2017-09-23T06:38:38.222Z,18.13
2017-09-23T06:41:05.670Z,19.16
2017-09-23T06:43:33.055Z,20.25
2017-09-23T06:46:00.455Z,21.15
2017-09-23T06:48:27.847Z,21.50
2017-09-23T06:50:55.250Z,21.60
2017-09-23T06:53:22.639Z,20.99
2017-09-23T06:55:50.039Z,20.33
2017-09-23T06:58:17.431Z,19.91
2017-09-23T07:00:44.838Z,19.84
2017-09-23T07:03:12.238Z,19.75
2017-09-23T07:05:39.642Z,20.09
2017-09-23T07:08:07.033Z,20.57
2017-09-23T07:10:34.439Z,21.37
2017-09-23T07:13:01.834Z,22.39
2017-09-23T07:15:29.242Z,22.78
2017-09-23T07:17:56.640Z,22.56
2017-09-23T07:20:24.030Z,22.49
2017-09-23T07:22:51.426Z,23.02
2017-09-23T07:25:18.835Z,23.54
2017-09-23T07:27:46.231Z,24.12
2017-09-23T07:30:13.634Z,25.17
2017-09-23T07:32:41.029Z,26.52
2017-09-23T07:35:08.426Z,27.85
2017-09-23T07:37:35.830Z,28.98
2017-09-23T07:40:03.223Z,30.21
2017-09-23T07:42:30.624Z,31.18
2017-09-23T07:44:58.015Z,32.07
2017-09-23T07:47:25.426Z,32.12
2017-09-23T07:49:52.821Z,32.59
2017-09-23T07:52:20.218Z,33.18
2017-09-23T07:54:47.609Z,32.69
2017-09-23T07:57:15.060Z,32.55
2017-09-23T07:59:42.446Z,31.99
2017-09-23T08:02:09.848Z,30.71
2017-09-23T08:04:37.237Z,29.07
2017-09-23T08:07:04.643Z,28.13
2017-09-23T08:09:32.062Z,27.55
2017-09-23T08:11:59.462Z,27.23
2017-09-23T08:14:26.858Z,27.06
2017-09-23T08:16:54.262Z,27.32
2017-09-23T08:19:21.658Z,27.77
2017-09-23T08:21:49.067Z,28.03
2017-09-23T08:24:16.460Z,28.20
2017-09-23T08:26:43.863Z,28.32
2017-09-23T08:29:11.255Z,27.98
2017-09-23T08:31:38.707Z,27.82
2017-09-23T08:34:06.113Z,26.96
2017-09-23T08:36:33.504Z,26.62
2017-09-23T08:39:00.911Z,26.35
2017-09-23T08:41:28.312Z,26.19
2017-09-23T08:43:55.714Z,26.06
2017-09-23T08:46:23.111Z,26.35
2017-09-23T08:48:50.508Z,26.62
2017-09-23T08:51:17.904Z,26.75
2017-09-23T08:53:45.337Z,26.68
2017-09-23T08:56:12.736Z,27.12
2017-09-23T08:58:40.138Z,27.83
2017-09-23T09:01:07.526Z,28.87
2017-09-23T09:03:34.922Z,29.65
2017-09-23T09:06:02.314Z,30.24
2017-09-23T09:08:29.714Z,30.56
2017-09-23T09:10:57.107Z,29.94
2017-09-23T09:13:24.510Z,29.63
2017-09-23T09:15:51.898Z,29.76
2017-09-23T09:18:19.306Z,29.02
2017-09-23T09:20:46.703Z,29.11
2017-09-23T09:23:14.134Z,28.97
2017-09-23T09:25:41.614Z,29.14
2017-09-23T09:28:08.998Z,28.39
2017-09-23T09:30:36.412Z,29.08
2017-09-23T09:33:03.802Z,29.53
2017-09-23T09:35:31.234Z,30.07
2017-09-23T09:37:58.628Z,30.34
2017-09-23T09:40:26.032Z,30.63
2017-09-23T09:42:53.424Z,30.74
2017-09-23T09:45:20.833Z,30.84
2017-09-23T09:47:48.230Z,30.89
2017-09-23T09:50:15.646Z,30.85
2017-09-23T09:52:43.132Z,29.96
2017-09-23T09:55:10.530Z,29.32
2017-09-23T09:57:37.925Z,29.46
2017-09-23T10:00:05.335Z,29.01
2017-09-23T10:02:32.753Z,28.97
2017-09-23T10:05:00.150Z,28.81
2017-09-23T10:07:27.558Z,28.38
2017-09-23T10:09:54.963Z,27.02
2017-09-23T10:12:22.351Z,26.44
2017-09-23T10:14:49.857Z,25.91
2017-09-23T10:17:17.242Z,25.33
2017-09-23T10:19:44.757Z,24.85
2017-09-23T10:22:12.146Z,24.78
2017-09-23T10:24:39.662Z,24.40
2017-09-23T10:27:07.055Z,23.78
2017-09-23T10:29:34.474Z,23.24
2017-09-23T10:32:01.875Z,23.35
2017-09-23T10:34:29.291Z,23.47
2017-09-23T10:36:56.686Z,23.75
2017-09-23T10:39:24.085Z,23.76
2017-09-23T10:41:51.483Z,23.58
2017-09-23T10:44:18.877Z,23.70
2017-09-23T10:46:46.270Z,23.97
2017-09-23T10:49:13.665Z,24.28
2017-09-23T10:51:41.067Z,24.14
2017-09-23T10:54:08.458Z,23.72
2017-09-23T10:56:35.862Z,23.55
2017-09-23T10:59:03.250Z,23.46
2017-09-23T11:01:30.703Z,23.13
2017-09-23T11:03:58.094Z,22.94
2017-09-23T11:06:25.487Z,23.06
2017-09-23T11:08:52.883Z,23.20
2017-09-23T11:11:20.276Z,23.14
2017-09-23T11:13:47.692Z,23.19
2017-09-23T11:16:15.093Z,22.96
2017-09-23T11:18:42.502Z,22.97
2017-09-23T11:21:09.890Z,22.89
2017-09-23T11:23:37.291Z,23.21
2017-09-23T11:26:04.682Z,23.05
2017-09-23T11:28:32.078Z,22.85
2017-09-23T11:30:59.474Z,22.86
2017-09-23T11:33:26.951Z,22.99
2017-09-23T11:35:54.390Z,23.03
2017-09-23T11:38:21.795Z,23.07
2017-09-23T11:40:49.191Z,23.34
2017-09-23T11:43:16.593Z,23.69
2017-09-23T11:45:43.986Z,23.32
2017-09-23T11:48:11.470Z,22.88
2017-09-23T11:50:38.866Z,22.69
2017-09-23T11:53:06.270Z,22.81
2017-09-23T11:55:33.667Z,22.86
2017-09-23T11:58:01.071Z,23.37
2017-09-23T12:00:28.454Z,23.74
2017-09-23T12:02:55.858Z,23.94
2017-09-23T12:05:23.249Z,23.68
2017-09-23T12:07:50.642Z,23.50
2017-09-23T12:10:18.034Z,23.34
2017-09-23T12:12:45.430Z,23.26
2017-09-23T12:15:12.813Z,23.20
2017-09-23T12:17:40.214Z,22.79
2017-09-23T12:20:07.618Z,22.97
2017-09-23T12:22:35.004Z,23.24
2017-09-23T12:25:02.398Z,23.62
2017-09-23T12:27:29.788Z,23.86
2017-09-23T12:29:57.170Z,24.01
2017-09-23T12:32:24.554Z,24.08
2017-09-23T12:34:51.990Z,24.47
2017-09-23T12:37:19.421Z,24.66
2017-09-23T12:39:46.818Z,25.30
2017-09-23T12:42:14.208Z,25.48
2017-09-23T12:44:41.598Z,25.73
2017-09-23T12:47:09.022Z,26.05
2017-09-23T12:49:36.418Z,26.18
2017-09-23T12:52:03.810Z,26.32
2017-09-23T12:54:31.206Z,26.32
2017-09-23T12:56:58.645Z,26.44
2017-09-23T12:59:26.062Z,26.69
2017-09-23T13:01:53.443Z,26.79
2017-09-23T13:04:20.835Z,26.69
2017-09-23T13:06:48.219Z,26.67
2017-09-23T13:09:15.726Z,26.45
2017-09-23T13:11:43.113Z,26.32
2017-09-23T13:14:10.503Z,26.70
2017-09-23T13:16:37.899Z,26.85
2017-09-23T13:19:05.291Z,27.02
2017-09-23T13:21:32.680Z,27.10
2017-09-23T13:24:00.073Z,27.10
2017-09-23T13:26:27.470Z,26.44
2017-09-23T13:28:54.863Z,25.97
2017-09-23T13:31:22.330Z,25.73
2017-09-23T13:33:49.795Z,25.71
2017-09-23T13:36:17.198Z,25.53
2017-09-23T13:38:44.595Z,25.21
2017-09-23T13:41:12.003Z,25.42
2017-09-23T13:43:39.414Z,25.34
2017-09-23T13:46:06.806Z,25.46
2017-09-23T13:48:34.198Z,25.67
2017-09-23T13:51:01.652Z,25.43
2017-09-23T13:53:29.034Z,25.69
2017-09-23T13:55:56.434Z,25.86
2017-09-23T13:58:23.826Z,26.14
2017-09-23T14:00:51.309Z,25.71
2017-09-23T14:03:18.703Z,25.58
2017-09-23T14:05:46.098Z,25.48
2017-09-23T14:08:13.499Z,25.41
2017-09-23T14:10:40.890Z,25.12
2017-09-23T14:13:08.288Z,24.77
2017-09-23T14:15:35.677Z,24.50
2017-09-23T14:18:03.075Z,24.06
2017-09-23T14:20:30.462Z,23.60
2017-09-23T14:22:57.858Z,23.61
2017-09-23T14:25:25.251Z,23.42
2017-09-23T14:27:52.644Z,23.25
2017-09-23T14:30:20.039Z,22.95
2017-09-23T14:32:47.542Z,22.97
2017-09-23T14:35:14.933Z,22.79
2017-09-23T14:37:42.335Z,22.56
2017-09-23T14:40:09.719Z,22.39
2017-09-23T14:42:37.119Z,22.26
2017-09-23T14:45:04.512Z,22.17
2017-09-23T14:47:31.906Z,21.92
2017-09-23T14:49:59.298Z,21.79
2017-09-23T14:52:26.699Z,21.80
2017-09-23T14:54:54.146Z,21.90
2017-09-23T14:57:21.538Z,21.89
2017-09-23T14:59:48.930Z,21.86
2017-09-23T15:02:16.366Z,22.28
2017-09-23T15:04:43.859Z,22.53
2017-09-23T15:07:11.247Z,22.38
2017-09-23T15:09:38.661Z,22.41
2017-09-23T15:12:06.038Z,22.55
2017-09-23T15:14:33.500Z,22.47
2017-09-23T15:17:00.886Z,22.42
2017-09-23T15:19:28.279Z,22.29
2017-09-23T15:21:55.663Z,22.27
2017-09-23T15:24:23.051Z,22.18
2017-09-23T15:26:50.458Z,22.41
2017-09-23T15:29:17.878Z,22.34
2017-09-23T15:31:45.262Z,22.60
2017-09-23T15:34:12.659Z,22.68
2017-09-23T15:36:40.054Z,22.52
2017-09-23T15:39:07.562Z,22.38
2017-09-23T15:41:34.948Z,22.60
2017-09-23T15:44:02.338Z,22.59
2017-09-23T15:46:29.727Z,22.95
2017-09-23T15:48:57.174Z,23.04
2017-09-23T15:51:24.559Z,22.76
2017-09-23T15:53:51.988Z,22.52
2017-09-23T15:56:19.454Z,22.35
2017-09-23T15:58:46.846Z,22.66
2017-09-23T16:01:14.235Z,22.93
2017-09-23T16:03:41.636Z,22.96
2017-09-23T16:06:09.039Z,23.07
2017-09-23T16:08:36.434Z,23.14
2017-09-23T16:11:03.845Z,23.14
2017-09-23T16:13:31.226Z,23.30
2017-09-23T16:15:58.614Z,23.40
2017-09-23T16:18:26.058Z,23.38
2017-09-23T16:20:53.442Z,23.38
2017-09-23T16:23:20.829Z,23.39
2017-09-23T16:25:48.224Z,23.46
2017-09-23T16:28:15.611Z,23.42
2017-09-23T16:30:43.001Z,23.35
2017-09-23T16:33:10.385Z,23.39
2017-09-23T16:35:37.838Z,23.20
2017-09-23T16:38:05.230Z,23.17
2017-09-23T16:40:32.622Z,23.19
2017-09-23T16:43:00.006Z,23.05
2017-09-23T16:45:27.399Z,23.13
2017-09-23T16:47:54.783Z,23.09
2017-09-23T16:50:22.175Z,23.04
2017-09-23T16:52:49.626Z,23.03
2017-09-23T16:55:17.023Z,22.78
2017-09-23T16:57:44.415Z,22.48
2017-09-23T17:00:11.818Z,22.47
2017-09-23T17:02:39.198Z,22.46
2017-09-23T17:05:06.583Z,22.43
2017-09-23T17:07:33.979Z,22.42
2017-09-23T17:10:01.371Z,22.29
2017-09-23T17:12:28.762Z,22.28
2017-09-23T17:14:56.149Z,22.07
2017-09-23T17:17:23.534Z,21.99
2017-09-23T17:19:50.927Z,21.89
2017-09-23T17:22:18.398Z,21.83
2017-09-23T17:24:45.786Z,21.73
2017-09-23T17:27:13.195Z,21.71
2017-09-23T17:29:40.582Z,21.66
2017-09-23T17:32:07.973Z,21.55
2017-09-23T17:34:35.384Z,21.31
2017-09-23T17:37:02.770Z,21.10
2017-09-23T17:39:30.159Z,21.14
2017-09-23T17:41:57.642Z,21.08
2017-09-23T17:44:25.099Z,20.99
2017-09-23T17:46:52.489Z,20.94
2017-09-23T17:49:19.880Z,20.80
2017-09-23T17:51:47.370Z,20.73
2017-09-23T17:54:14.750Z,20.65
2017-09-23T17:56:42.151Z,20.53
2017-09-23T17:59:09.549Z,20.45
2017-09-23T18:01:36.930Z,20.37
2017-09-23T18:04:04.338Z,20.29
2017-09-23T18:06:31.721Z,20.23
2017-09-23T18:08:59.119Z,20.18
2017-09-23T18:11:26.499Z,19.97
2017-09-23T18:13:53.890Z,19.92
2017-09-23T18:16:21.278Z,19.81
2017-09-23T18:18:48.785Z,19.73
2017-09-23T18:21:16.267Z,19.61
2017-09-23T18:23:43.653Z,19.47
2017-09-23T18:26:11.846Z,19.47
2017-09-23T18:28:39.247Z,19.51
2017-09-23T18:31:06.630Z,19.40
2017-09-23T18:33:34.038Z,19.30
2017-09-23T18:36:01.428Z,19.29
2017-09-23T18:38:28.823Z,19.23
2017-09-23T18:40:56.220Z,19.17
2017-09-23T18:43:23.610Z,19.13
2017-09-23T18:45:51.016Z,19.10
2017-09-23T18:48:18.419Z,19.05
2017-09-23T18:50:45.811Z,18.99
2017-09-23T18:53:13.215Z,18.98
2017-09-23T18:55:40.611Z,18.91
2017-09-23T18:58:08.094Z,18.89
2017-09-23T19:00:35.487Z,18.83
2017-09-23T19:03:02.902Z,18.85
2017-09-23T19:05:30.306Z,18.78
2017-09-23T19:07:57.698Z,18.75
2017-09-23T19:10:25.102Z,18.65
2017-09-23T19:12:52.490Z,18.56
2017-09-23T19:15:19.887Z,18.31
2017-09-23T19:17:47.286Z,18.38
2017-09-23T19:20:14.686Z,18.37
2017-09-23T19:22:42.150Z,18.33
2017-09-23T19:25:09.554Z,18.30
2017-09-23T19:27:36.946Z,18.29
2017-09-23T19:30:04.347Z,18.30
2017-09-23T19:32:31.740Z,18.40
2017-09-23T19:34:59.234Z,18.35
2017-09-23T19:37:26.631Z,18.37
2017-09-23T19:39:54.046Z,18.32
2017-09-23T19:42:21.443Z,18.26
2017-09-23T19:44:48.846Z,18.25
2017-09-23T19:47:16.241Z,18.18
2017-09-23T19:49:43.634Z,18.09
2017-09-23T19:52:11.039Z,17.97
2017-09-23T19:54:38.450Z,17.96
2017-09-23T19:57:05.930Z,17.90
2017-09-23T19:59:33.386Z,17.69
2017-09-23T20:02:00.846Z,17.32
2017-09-23T20:04:28.244Z,17.31
2017-09-23T20:06:55.642Z,17.26
2017-09-23T20:09:23.035Z,17.10
2017-09-23T20:11:50.443Z,17.08
2017-09-23T20:14:17.839Z,16.94
2017-09-23T20:16:45.244Z,16.85
2017-09-23T20:19:12.639Z,16.92
2017-09-23T20:21:40.038Z,16.85
2017-09-23T20:24:07.438Z,17.00
2017-09-23T20:26:34.842Z,16.87
2017-09-23T20:29:02.237Z,16.87
2017-09-23T20:31:29.639Z,16.83
2017-09-23T20:33:57.035Z,16.78
2017-09-23T20:36:24.438Z,16.62
2017-09-23T20:38:51.834Z,16.55
2017-09-23T20:41:19.330Z,16.58
2017-09-23T20:43:46.727Z,16.60
2017-09-23T20:46:14.132Z,16.59
2017-09-23T20:48:41.519Z,16.60
2017-09-23T20:51:08.931Z,16.61
2017-09-23T20:53:36.318Z,16.28
2017-09-23T20:56:03.709Z,15.98
2017-09-23T20:58:31.121Z,15.98
2017-09-23T21:00:58.514Z,15.92
2017-09-23T21:03:25.923Z,15.81
2017-09-23T21:05:53.311Z,15.77
2017-09-23T21:08:20.707Z,15.83
2017-09-23T21:10:48.102Z,16.03
2017-09-23T21:13:15.498Z,16.14
2017-09-23T21:15:42.973Z,16.40
2017-09-23T21:18:10.367Z,16.44
2017-09-23T21:20:37.762Z,16.56
2017-09-23T21:23:05.163Z,16.74
2017-09-23T21:25:32.562Z,16.83
2017-09-23T21:27:59.963Z,16.90
2017-09-23T21:30:27.363Z,16.97
2017-09-23T21:32:54.766Z,17.02
2017-09-23T21:35:22.157Z,16.94
2017-09-23T21:37:49.564Z,16.76
2017-09-23T21:40:16.967Z,16.47
2017-09-23T21:42:44.354Z,16.67
2017-09-23T21:45:11.755Z,16.76
2017-09-23T21:47:39.153Z,16.68
2017-09-23T21:50:06.552Z,16.65
2017-09-23T21:52:34.043Z,16.27
2017-09-23T21:55:01.439Z,16.53
2017-09-23T21:57:28.826Z,16.58
2017-09-23T21:59:56.234Z,16.60
2017-09-23T22:02:23.643Z,16.65
2017-09-23T22:04:51.046Z,16.72
2017-09-23T22:07:18.445Z,16.75
2017-09-23T22:09:45.874Z,16.70
2017-09-23T22:12:13.286Z,16.23
2017-09-23T22:14:40.690Z,15.76
2017-09-23T22:17:08.078Z,15.87
2017-09-23T22:19:35.491Z,15.92
2017-09-23T22:22:02.882Z,16.32
2017-09-23T22:24:30.358Z,16.40
2017-09-23T22:26:57.754Z,16.42
2017-09-23T22:29:25.162Z,16.53
2017-09-23T22:31:52.638Z,16.55
2017-09-23T22:34:20.042Z,16.70
2017-09-23T22:36:47.438Z,16.84
2017-09-23T22:39:14.855Z,16.95
2017-09-23T22:41:42.252Z,16.93
2017-09-23T22:44:09.655Z,16.93
2017-09-23T22:46:37.254Z,16.92
2017-09-23T22:49:04.658Z,16.97
2017-09-23T22:51:32.066Z,16.94
2017-09-23T22:53:59.542Z,17.05
2017-09-23T22:56:26.962Z,17.03
2017-09-23T22:58:54.366Z,17.01
2017-09-23T23:01:21.777Z,17.01
2017-09-23T23:03:49.177Z,16.99
2017-09-23T23:06:16.623Z,16.94
2017-09-23T23:08:44.019Z,16.73
2017-09-23T23:11:11.424Z,16.87
2017-09-23T23:13:38.810Z,16.79
2017-09-23T23:16:06.211Z,16.88
2017-09-23T23:18:33.702Z,16.87
2017-09-23T23:21:01.094Z,16.89
2017-09-23T23:23:28.495Z,16.95
2017-09-23T23:25:55.894Z,16.79
2017-09-23T23:28:23.297Z,16.84
2017-09-23T23:30:50.774Z,16.61
2017-09-23T23:33:18.171Z,16.65
2017-09-23T23:35:45.571Z,16.45
2017-09-23T23:38:12.962Z,16.15
2017-09-23T23:40:40.363Z,16.03
2017-09-23T23:43:07.761Z,15.93
2017-09-23T23:45:35.154Z,15.96
2017-09-23T23:48:02.550Z,15.95
2017-09-23T23:50:30.023Z,16.03
2017-09-23T23:52:57.423Z,15.80
2017-09-23T23:55:24.814Z,15.67
2017-09-23T23:57:52.214Z,15.81
